6 Knots — CRA7388 — position and weather

sailwx.info

Track history (hours):
 
Tides and Currents Weather Stations Pressure Air Temp Water Temp Dewpoint Dewpoint Depression Visibility Wind Speed Wind Dir Waves Ship Positions

6 Knots

Last reported at 2018-Jul-14 09:42 UTC. Time now 2018-Jul-22 22:03 UTC.
Position N 37°03' W 008°15'.
Warning: this ship's position is 8 days out of date.

Length 11 m.

Type: Sailing vessel. MMSI: 263959043.

Date/timePositionNaut miles runAvg speedWind from/ knotsBaromVisibWave heightAir tempDewpointWater temp
2018-Jul-14 09:42N 37°03' W 008°15'1 7.1
2018-Jul-14 09:30N 37°03' W 008°17'4 7.0
2018-Jul-14 09:00N 37°03' W 008°21'3 6.9
2018-Jul-14 08:30N 37°02' W 008°25'3 6.9
2018-Jul-14 08:00N 37°02' W 008°29'3 6.8
2018-Jul-14 07:30N 37°01' W 008°34'3 6.8
2018-Jul-14 07:00N 37°01' W 008°38'49 5.4
2018-Jul-13 21:53N 37°43' W 009°10'3 6.8
2018-Jul-13 21:23N 37°47' W 009°10'2 6.6
2018-Jul-13 21:00N 37°49' W 009°11'3 6.8
2018-Jul-13 20:30N 37°52' W 009°11'4 7.3
2018-Jul-13 20:00N 37°56' W 009°12'4 7.5
2018-Jul-13 19:30N 37°60' W 009°12'4 7.7
2018-Jul-13 19:00N 38°04' W 009°13'4 7.7
2018-Jul-13 18:30N 38°08' W 009°13'4 7.8
2018-Jul-13 18:00N 38°11' W 009°14'4 7.7
2018-Jul-13 17:29N 38°15' W 009°14'6 7.7
2018-Jul-13 16:40N 38°22' W 009°15'2 7.5
2018-Jul-13 16:21N 38°24' W 009°16'3 7.2
2018-Jul-13 15:57N 38°27' W 009°16'3 6.9
2018-Jul-13 15:28N 38°30' W 009°17'3 7.2
2018-Jul-13 14:59N 38°34' W 009°17'7 6.9
2018-Jul-13 14:00N 38°40' W 009°19'0 0.4
2018-Jul-13 12:58N 38°41' W 009°19'0 0.0
2018-Jul-13 12:28N 38°41' W 009°19'0 0.0
2018-Jul-13 11:49N 38°41' W 009°19'0 0.0
2018-Jul-13 11:19N 38°41' W 009°19'0 0.0
2018-Jul-13 10:28N 38°41' W 009°19'0 0.0
2018-Jul-13 09:52N 38°41' W 009°19'0 0.0
2018-Jul-13 09:28N 38°41' W 009°19'0 0.0
2018-Jul-13 08:16N 38°41' W 009°19'0 0.0
2018-Jul-13 07:55N 38°41' W 009°19'0 0.0
2018-Jul-13 06:28N 38°41' W 009°19'0 0.0
2018-Jul-13 04:16N 38°41' W 009°19'0 0.0
2018-Jul-13 03:40N 38°41' W 009°19'0 0.0
2018-Jul-13 03:28N 38°41' W 009°19'0 0.0
2018-Jul-13 02:58N 38°41' W 009°19'0 0.0
2018-Jul-13 02:28N 38°41' W 009°19'0 0.0
2018-Jul-13 01:04N 38°41' W 009°19'0 0.0
2018-Jul-13 00:46N 38°41' W 009°19'0 0.0
2018-Jul-12 23:19N 38°41' W 009°19'0 0.0
2018-Jul-12 21:43N 38°41' W 009°19'0 0.0
2018-Jul-12 21:22N 38°41' W 009°19'0 0.0
2018-Jul-12 19:49N 38°41' W 009°19'0 0.0
2018-Jul-12 19:04N 38°41' W 009°19'0 0.0
2018-Jul-12 18:34N 38°41' W 009°19'0 0.0
2018-Jul-12 18:01N 38°41' W 009°19'0 0.0
2018-Jul-12 17:49N 38°41' W 009°19'0 0.0
2018-Jul-12 17:19N 38°41' W 009°19'0 0.0
2018-Jul-12 16:55N 38°41' W 009°19'0 0.0
2018-Jul-12 16:22N 38°41' W 009°19'0 0.0
2018-Jul-12 14:55N 38°41' W 009°19'0 0.0
2018-Jul-12 13:46N 38°41' W 009°19'0 0.0
2018-Jul-12 13:01N 38°41' W 009°19'0 0.0
2018-Jul-12 12:49N 38°41' W 009°19'0 0.0
2018-Jul-12 12:07N 38°41' W 009°19'0 0.0
2018-Jul-12 11:49N 38°41' W 009°19'0 0.0
2018-Jul-12 11:22N 38°41' W 009°19'0 0.0
2018-Jul-12 10:49N 38°41' W 009°19'0 0.0
2018-Jul-12 10:22N 38°41' W 009°19'0 0.0
2018-Jul-12 09:58N 38°41' W 009°19'0 0.0
2018-Jul-12 09:28N 38°41' W 009°19'0 0.0
2018-Jul-12 07:55N 38°41' W 009°19'0 0.0
2018-Jul-12 07:22N 38°41' W 009°19'0 0.0
2018-Jul-12 06:55N 38°41' W 009°19'0 0.0
2018-Jul-12 06:13N 38°41' W 009°19'0 0.0
2018-Jul-12 05:34N 38°41' W 009°19'0 0.0
2018-Jul-12 05:19N 38°41' W 009°19'0 0.0
2018-Jul-12 04:49N 38°41' W 009°19'0 0.0
2018-Jul-12 04:25N 38°41' W 009°19'0 0.0
2018-Jul-12 03:55N 38°41' W 009°19'0 0.0
2018-Jul-12 03:25N 38°41' W 009°19'0 0.0
2018-Jul-12 02:55N 38°41' W 009°19'0 0.0
2018-Jul-12 02:16N 38°41' W 009°19'0 0.0
2018-Jul-12 01:58N 38°41' W 009°19'0 0.0
2018-Jul-12 00:19N 38°41' W 009°19'0 0.0
2018-Jul-11 23:55N 38°41' W 009°19'0 0.0
2018-Jul-11 23:19N 38°41' W 009°19'0 0.0
2018-Jul-11 22:58N 38°41' W 009°19'0 0.0
2018-Jul-11 22:25N 38°41' W 009°19'0 0.0
2018-Jul-11 21:49N 38°41' W 009°19'0 0.0
2018-Jul-11 21:10N 38°41' W 009°19'0 0.0
2018-Jul-11 20:49N 38°41' W 009°19'0 0.0
2018-Jul-11 20:19N 38°41' W 009°19'0 0.0
2018-Jul-11 15:43N 38°41' W 009°19'0 0.0
2018-Jul-11 15:19N 38°41' W 009°19'0 0.0
2018-Jul-11 14:58N 38°41' W 009°19'0 0.0
2018-Jul-11 14:28N 38°41' W 009°19'0 0.0
2018-Jul-11 13:52N 38°41' W 009°19'0 0.0
2018-Jul-11 13:22N 38°41' W 009°19'0 0.0
2018-Jul-11 12:34N 38°41' W 009°19'0 0.0
2018-Jul-11 12:28N 38°41' W 009°19'0 0.0
2018-Jul-11 11:58N 38°41' W 009°19'0 0.0
2018-Jul-11 10:16N 38°41' W 009°19'0 0.0
2018-Jul-11 09:46N 38°41' W 009°19'0 0.0
2018-Jul-11 09:19N 38°41' W 009°19'0 0.0
2018-Jul-11 08:58N 38°41' W 009°19'0 0.0
2018-Jul-11 08:25N 38°41' W 009°19'0 0.0
2018-Jul-11 07:58N 38°41' W 009°19'0 0.0
2018-Jul-11 07:16N 38°41' W 009°19'0 0.0
2018-Jul-11 06:58N 38°41' W 009°19'0 0.0
2018-Jul-11 06:28N 38°41' W 009°19'0 0.0
2018-Jul-11 05:52N 38°41' W 009°19'0 0.0
2018-Jul-11 05:28N 38°41' W 009°19'0 0.0
2018-Jul-11 04:52N 38°41' W 009°19'0 0.0
2018-Jul-11 04:19N 38°41' W 009°19'0 0.0
2018-Jul-11 03:58N 38°41' W 009°19'0 0.0
2018-Jul-11 03:22N 38°41' W 009°19'0 0.0
2018-Jul-11 02:58N 38°41' W 009°19'0 0.0
2018-Jul-11 02:25N 38°41' W 009°19'0 0.0
2018-Jul-11 01:58N 38°41' W 009°19'0 0.0
2018-Jul-11 01:10N 38°41' W 009°19'0 0.0
2018-Jul-11 00:58N 38°41' W 009°19'0 0.0
2018-Jul-11 00:28N 38°41' W 009°19'0 0.0
2018-Jul-10 23:55N 38°41' W 009°19'0 0.0
2018-Jul-10 23:28N 38°41' W 009°19'0 0.0
2018-Jul-10 22:52N 38°41' W 009°19'0 0.0
2018-Jul-10 22:10N 38°41' W 009°19'0 0.0
2018-Jul-10 21:58N 38°41' W 009°19'0 0.0
2018-Jul-10 21:28N 38°41' W 009°19'0 0.0
2018-Jul-10 20:58N 38°41' W 009°19'0 0.0
2018-Jul-10 19:49N 38°41' W 009°19'0 0.0
2018-Jul-10 19:22N 38°41' W 009°19'0 0.0
2018-Jul-10 18:40N 38°41' W 009°19'0 0.0
2018-Jul-10 18:22N 38°41' W 009°19'0 0.0
2018-Jul-10 17:58N 38°41' W 009°19'0 0.0
2018-Jul-10 16:52N 38°41' W 009°19'0 0.0
2018-Jul-10 16:16N 38°41' W 009°19'0 0.0
2018-Jul-10 15:58N 38°41' W 009°19'0 0.0
2018-Jul-10 15:25N 38°41' W 009°19'0 0.0
2018-Jul-10 13:52N 38°41' W 009°19'0 0.0
2018-Jul-10 13:25N 38°41' W 009°19'0 0.0
2018-Jul-10 12:16N 38°41' W 009°19'0 0.0
2018-Jul-10 11:52N 38°41' W 009°19'0 0.0
2018-Jul-10 11:25N 38°41' W 009°19'0 0.0
2018-Jul-10 10:58N 38°41' W 009°19'0 0.0
2018-Jul-10 09:49N 38°41' W 009°19'0 0.0
2018-Jul-10 08:46N 38°41' W 009°19'0 0.0
2018-Jul-10 08:28N 38°41' W 009°19'0 0.0
2018-Jul-10 07:40N 38°41' W 009°19'0 0.0
2018-Jul-10 07:16N 38°41' W 009°19'0 0.0
2018-Jul-10 06:52N 38°41' W 009°19'0 0.0
2018-Jul-10 06:28N 38°41' W 009°19'0 0.0
2018-Jul-10 05:52N 38°41' W 009°19'0 0.0
2018-Jul-10 05:28N 38°41' W 009°19'0 0.0
2018-Jul-10 04:52N 38°41' W 009°19'0 0.0
2018-Jul-10 04:28N 38°41' W 009°19'0 0.0
2018-Jul-10 03:55N 38°41' W 009°19'0 0.0
2018-Jul-10 03:22N 38°41' W 009°19'0 0.0
2018-Jul-10 02:52N 38°41' W 009°19'0 0.0
2018-Jul-10 02:28N 38°41' W 009°19'0 0.0
2018-Jul-10 01:52N 38°41' W 009°19'0 0.0
2018-Jul-10 01:28N 38°41' W 009°19'0 0.0
2018-Jul-10 00:52N 38°41' W 009°19'0 0.0
2018-Jul-10 00:28N 38°41' W 009°19'0 0.0
2018-Jul-09 23:52N 38°41' W 009°19'0 0.0
2018-Jul-09 23:22N 38°41' W 009°19'0 0.0
2018-Jul-09 22:58N 38°41' W 009°19'0 0.0
2018-Jul-09 22:25N 38°41' W 009°19'0 0.0
2018-Jul-09 21:52N 38°41' W 009°19'0 0.0
2018-Jul-09 21:25N 38°41' W 009°19'0 0.0
2018-Jul-09 20:40N 38°41' W 009°19'0 0.0
2018-Jul-09 20:10N 38°41' W 009°19'0 0.0
2018-Jul-09 19:58N 38°41' W 009°19'0 0.0
2018-Jul-09 19:22N 38°41' W 009°19'0 0.0
2018-Jul-09 18:58N 38°41' W 009°19'0 0.0
2018-Jul-09 18:28N 38°41' W 009°19'0 0.0
2018-Jul-09 17:46N 38°41' W 009°19'0 0.0
2018-Jul-09 17:22N 38°41' W 009°19'0 0.0
2018-Jul-09 16:58N 38°41' W 009°19'0 0.0
2018-Jul-09 16:26N 38°41' W 009°19'0 0.0
2018-Jul-09 15:53N 38°41' W 009°19'0 0.0
2018-Jul-09 15:20N 38°41' W 009°19'0 0.0
2018-Jul-09 14:56N 38°41' W 009°19'0 0.0
2018-Jul-09 14:29N 38°41' W 009°19'0 0.0
2018-Jul-09 13:56N 38°41' W 009°19'0 0.0
2018-Jul-09 13:17N 38°41' W 009°19'0 0.0
2018-Jul-09 12:02N 38°41' W 009°19'0 0.0
2018-Jul-09 11:50N 38°41' W 009°19'0 0.0
2018-Jul-09 11:20N 38°41' W 009°19'0 0.0
2018-Jul-09 10:59N 38°41' W 009°19'0 0.0
2018-Jul-09 09:38N 38°41' W 009°19'0 0.0
2018-Jul-09 08:32N 38°41' W 009°19'0 0.0
2018-Jul-09 08:26N 38°41' W 009°19'0 0.0
2018-Jul-09 07:38N 38°41' W 009°19'0 0.0
2018-Jul-09 07:20N 38°41' W 009°19'0 0.0
2018-Jul-09 06:44N 38°41' W 009°19'0 0.0
2018-Jul-09 06:20N 38°41' W 009°19'0 0.0
2018-Jul-09 05:59N 38°41' W 009°19'0 0.0
2018-Jul-09 05:20N 38°41' W 009°19'0 0.0
2018-Jul-09 04:56N 38°41' W 009°19'0 0.0
2018-Jul-09 04:23N 38°41' W 009°19'0 0.0
2018-Jul-09 03:38N 38°41' W 009°19'0 0.0
2018-Jul-09 03:29N 38°41' W 009°19'0 0.0
2018-Jul-09 02:58N 38°41' W 009°19'0 0.0
2018-Jul-09 02:25N 38°41' W 009°19'0 0.0
2018-Jul-09 01:10N 38°41' W 009°19'0 0.0
2018-Jul-09 00:49N 38°41' W 009°19'0 0.0
2018-Jul-09 00:19N 38°41' W 009°19'0 0.0
2018-Jul-08 23:55N 38°41' W 009°19'0 0.0
2018-Jul-08 23:28N 38°41' W 009°19'0 0.0
2018-Jul-08 22:55N 38°41' W 009°19'0 0.0
2018-Jul-08 21:49N 38°41' W 009°19'0 0.0
2018-Jul-08 21:25N 38°41' W 009°19'0 0.0
2018-Jul-08 20:49N 38°41' W 009°19'0 0.0
2018-Jul-08 20:16N 38°41' W 009°19'0 0.0
2018-Jul-08 19:55N 38°41' W 009°19'0 0.0
2018-Jul-08 19:25N 38°41' W 009°19'0 0.0
2018-Jul-08 19:00N 38°41' W 009°19'0 0.0
2018-Jul-08 18:24N 38°41' W 009°19'0 0.0
2018-Jul-08 18:00N 38°41' W 009°19'0 0.0
2018-Jul-08 17:21N 38°41' W 009°19'0 0.0
2018-Jul-08 16:42N 38°41' W 009°19'0 0.0
2018-Jul-08 16:24N 38°41' W 009°19'0 0.0
2018-Jul-08 15:54N 38°41' W 009°19'0 0.0
2018-Jul-08 15:30N 38°41' W 009°19'0 0.0
2018-Jul-08 15:01N 38°41' W 009°19'0 0.0
2018-Jul-08 14:15N 38°41' W 009°19'0 0.0
2018-Jul-08 13:57N 38°41' W 009°19'0 0.0
2018-Jul-08 12:30N 38°41' W 009°19'0 0.0
2018-Jul-08 11:06N 38°41' W 009°19'0 0.0
2018-Jul-08 08:57N 38°41' W 009°19'0 0.0
2018-Jul-08 07:36N 38°41' W 009°19'0 0.1
2018-Jul-08 07:30N 38°41' W 009°19'0 0.0
2018-Jul-08 06:57N 38°41' W 009°19'0 0.0
2018-Jul-08 06:26N 38°41' W 009°19'0 0.0
2018-Jul-08 05:59N 38°41' W 009°19'0 0.0
2018-Jul-08 05:23N 38°41' W 009°19'0 0.0
2018-Jul-08 04:56N 38°41' W 009°19'0 0.0
2018-Jul-08 04:26N 38°41' W 009°19'0 0.0
2018-Jul-08 03:59N 38°41' W 009°19'0 0.0
2018-Jul-08 03:23N 38°41' W 009°19'0 0.0
2018-Jul-08 02:59N 38°41' W 009°19'0 0.0
2018-Jul-08 02:29N 38°41' W 009°19'0 0.0
2018-Jul-08 01:05N 38°41' W 009°19'0 0.0
2018-Jul-08 00:50N 38°41' W 009°19'0 0.0
2018-Jul-07 22:35N 38°41' W 009°19'0 0.0
2018-Jul-07 22:11N 38°41' W 009°19'0 0.0
2018-Jul-07 21:50N 38°41' W 009°19'0 0.0
2018-Jul-07 20:34N 38°41' W 009°19'0 0.0
2018-Jul-07 20:28N 38°41' W 009°19'0 0.0
2018-Jul-07 19:58N 38°41' W 009°19'0 0.0
2018-Jul-07 18:22N 38°41' W 009°19'0 0.0
2018-Jul-07 17:58N 38°41' W 009°19'0 0.0
2018-Jul-07 17:28N 38°41' W 009°19'0 0.0
2018-Jul-07 16:10N 38°41' W 009°19'0 0.0
2018-Jul-07 15:58N 38°41' W 009°19'0 0.0
2018-Jul-07 15:22N 38°41' W 009°19'0 0.0
2018-Jul-07 14:55N 38°41' W 009°19'0 0.0
2018-Jul-07 14:28N 38°41' W 009°19'0 0.0
2018-Jul-07 13:52N 38°41' W 009°19'0 0.0
2018-Jul-07 13:28N 38°41' W 009°19'0 0.0
2018-Jul-07 12:52N 38°41' W 009°19'0 0.0
2018-Jul-07 12:28N 38°41' W 009°19'0 0.0
2018-Jul-07 09:52N 38°41' W 009°19'0 0.0
2018-Jul-07 09:28N 38°41' W 009°19'0 0.0
2018-Jul-07 08:49N 38°41' W 009°19'0 0.0
2018-Jul-07 08:19N 38°41' W 009°19'0 0.0
2018-Jul-07 07:46N 38°41' W 009°19'0 0.0
2018-Jul-07 07:16N 38°41' W 009°19'0 0.0
2018-Jul-07 06:58N 38°41' W 009°19'0 0.0
2018-Jul-07 06:04N 38°41' W 009°19'0 0.0
2018-Jul-07 05:58N 38°41' W 009°19'0 0.0
2018-Jul-07 04:25N 38°41' W 009°19'0 0.0
2018-Jul-07 03:58N 38°41' W 009°19'0 0.0
2018-Jul-07 03:25N 38°41' W 009°19'0 0.0
2018-Jul-07 02:37N 38°41' W 009°19'0 0.0
2018-Jul-07 02:10N 38°41' W 009°19'0 0.0
2018-Jul-07 01:43N 38°41' W 009°19'0 0.0
2018-Jul-07 01:22N 38°41' W 009°19'0 0.0
2018-Jul-07 00:58N 38°41' W 009°19'0 0.0
2018-Jul-07 00:19N 38°41' W 009°19'0 0.0
2018-Jul-06 23:55N 38°41' W 009°19'0 0.0
2018-Jul-06 23:28N 38°41' W 009°19'0 0.0
2018-Jul-06 21:46N 38°41' W 009°19'0 0.0
2018-Jul-06 21:25N 38°41' W 009°19'0 0.0
2018-Jul-06 20:04N 38°41' W 009°19'0 0.0
2018-Jul-06 19:46N 38°41' W 009°19'0 0.0
2018-Jul-06 19:28N 38°41' W 009°19'0 0.0
2018-Jul-06 18:52N 38°41' W 009°19'0 0.0
2018-Jul-06 18:16N 38°41' W 009°19'0 0.0
2018-Jul-06 17:34N 38°41' W 009°19'0 0.0
2018-Jul-06 17:28N 38°41' W 009°19'0 0.0
2018-Jul-06 16:52N 38°41' W 009°19'0 0.0
2018-Jul-06 16:22N 38°41' W 009°19'0 0.0
2018-Jul-06 15:58N 38°41' W 009°19'0 0.0
2018-Jul-06 15:28N 38°41' W 009°19'0 0.0
2018-Jul-06 14:40N 38°41' W 009°19'0 0.0
2018-Jul-06 14:22N 38°41' W 009°19'0 0.0
2018-Jul-06 13:34N 38°41' W 009°19'0 0.0
2018-Jul-06 13:16N 38°41' W 009°19'0 0.0
2018-Jul-06 10:52N 38°41' W 009°19'0 0.0
2018-Jul-06 10:28N 38°41' W 009°19'0 0.0
2018-Jul-06 09:46N 38°41' W 009°19'0 0.0
2018-Jul-06 09:28N 38°41' W 009°19'0 0.0
2018-Jul-06 08:46N 38°41' W 009°19'0 0.0
2018-Jul-06 08:28N 38°41' W 009°19'0 0.0
2018-Jul-06 07:58N 38°41' W 009°19'0 0.0
2018-Jul-06 07:28N 38°41' W 009°19'0 0.0
2018-Jul-06 06:46N 38°41' W 009°19'0 0.0
2018-Jul-06 06:19N 38°41' W 009°19'0 0.0
2018-Jul-06 04:34N 38°41' W 009°19'0 0.0
2018-Jul-06 03:04N 38°41' W 009°19'0 0.0
2018-Jul-06 02:46N 38°41' W 009°19'0 0.0
2018-Jul-06 02:28N 38°41' W 009°19'0 0.0
2018-Jul-06 01:52N 38°41' W 009°19'0 0.0
2018-Jul-06 01:28N 38°41' W 009°19'0 0.0
2018-Jul-06 00:02N 38°41' W 009°19'0 0.0
2018-Jul-05 23:41N 38°41' W 009°19'0 0.0
2018-Jul-05 22:38N 38°41' W 009°19'0 0.0
2018-Jul-05 20:26N 38°41' W 009°19'0 0.0
2018-Jul-05 18:44N 38°41' W 009°19'0 0.0
2018-Jul-05 17:32N 38°41' W 009°19'0 0.0
2018-Jul-05 16:38N 38°41' W 009°19'0 0.0
2018-Jul-05 16:20N 38°41' W 009°19'0 0.0
2018-Jul-05 15:44N 38°41' W 009°19'0 0.0
2018-Jul-05 14:32N 38°41' W 009°19'0 0.0
2018-Jul-05 13:56N 38°41' W 009°19'0 0.0
2018-Jul-05 13:08N 38°41' W 009°19'0 0.0
2018-Jul-05 12:56N 38°41' W 009°19'0 0.0
2018-Jul-05 12:26N 38°41' W 009°19'0 0.0
2018-Jul-05 11:56N 38°41' W 009°19'0 0.0
2018-Jul-05 11:08N 38°41' W 009°19'0 0.0
2018-Jul-05 10:38N 38°41' W 009°19'0 0.0
2018-Jul-05 10:26N 38°41' W 009°19'0 0.0
2018-Jul-05 09:50N 38°41' W 009°19'0 0.0
2018-Jul-05 09:20N 38°41' W 009°19'0 0.0
2018-Jul-05 08:50N 38°41' W 009°19'0 0.0
2018-Jul-05 08:08N 38°41' W 009°19'0 0.0
2018-Jul-05 07:50N 38°41' W 009°19'0 0.0
2018-Jul-05 07:23N 38°41' W 009°19'0 0.0
2018-Jul-05 06:38N 38°41' W 009°19'0 0.0
2018-Jul-05 06:23N 38°41' W 009°19'0 0.0
2018-Jul-05 05:53N 38°41' W 009°19'0 0.0
2018-Jul-05 05:26N 38°41' W 009°19'0 0.0
2018-Jul-05 04:50N 38°41' W 009°19'0 0.0
2018-Jul-05 04:14N 38°41' W 009°19'0 0.0
2018-Jul-05 03:44N 38°41' W 009°19'0 0.0
2018-Jul-05 03:26N 38°41' W 009°19'0 0.0
2018-Jul-05 02:59N 38°41' W 009°19'0 0.0
2018-Jul-05 02:20N 38°41' W 009°19'0 0.0
2018-Jul-05 01:56N 38°41' W 009°19'0 0.0
2018-Jul-04 23:41N 38°41' W 009°19'0 0.0
2018-Jul-04 23:08N 38°41' W 009°19'0 0.0
2018-Jul-04 22:53N 38°41' W 009°19'0 0.0
2018-Jul-04 22:26N 38°41' W 009°19'0 0.0
2018-Jul-04 21:56N 38°41' W 009°19'0 0.0
2018-Jul-04 20:20N 38°41' W 009°19'0 0.0
2018-Jul-04 18:50N 38°41' W 009°19'0 0.0
2018-Jul-04 16:44N 38°41' W 009°19'0 0.0
2018-Jul-04 16:20N 38°41' W 009°19'0 0.0
2018-Jul-04 15:06N 38°41' W 009°19'0 0.0
2018-Jul-04 14:59N 38°41' W 009°19'0 0.0
2018-Jul-04 14:23N 38°41' W 009°19'0 0.0
2018-Jul-04 13:56N 38°41' W 009°19'0 0.0
2018-Jul-04 13:23N 38°41' W 009°19'0 0.0
2018-Jul-04 10:53N 38°41' W 009°19'0 0.0
2018-Jul-04 10:23N 38°41' W 009°19'0 0.0
2018-Jul-04 09:59N 38°41' W 009°19'  
Track history (hours):
 
Tides and Currents Weather Stations Pressure Air Temp Water Temp Dewpoint Dewpoint Depression Visibility Wind Speed Wind Dir Waves Ship Positions

6 Knots

Last reported at 2018-Jul-14 09:42 UTC. Time now 2018-Jul-22 22:03 UTC.
Position N 37°03' W 008°15'.
Warning: this ship's position is 8 days out of date.

Length 11 m.

Type: Sailing vessel. MMSI: 263959043.

Date/timePositionNaut miles runAvg speedWind from/ knotsBaromVisibWave heightAir tempDewpointWater temp
2018-Jul-14 09:42N 37°03' W 008°15'1 7.1
2018-Jul-14 09:30N 37°03' W 008°17'4 7.0
2018-Jul-14 09:00N 37°03' W 008°21'3 6.9
2018-Jul-14 08:30N 37°02' W 008°25'3 6.9
2018-Jul-14 08:00N 37°02' W 008°29'3 6.8
2018-Jul-14 07:30N 37°01' W 008°34'3 6.8
2018-Jul-14 07:00N 37°01' W 008°38'49 5.4
2018-Jul-13 21:53N 37°43' W 009°10'3 6.8
2018-Jul-13 21:23N 37°47' W 009°10'2 6.6
2018-Jul-13 21:00N 37°49' W 009°11'3 6.8
2018-Jul-13 20:30N 37°52' W 009°11'4 7.3
2018-Jul-13 20:00N 37°56' W 009°12'4 7.5
2018-Jul-13 19:30N 37°60' W 009°12'4 7.7
2018-Jul-13 19:00N 38°04' W 009°13'4 7.7
2018-Jul-13 18:30N 38°08' W 009°13'4 7.8
2018-Jul-13 18:00N 38°11' W 009°14'4 7.7
2018-Jul-13 17:29N 38°15' W 009°14'6 7.7
2018-Jul-13 16:40N 38°22' W 009°15'2 7.5
2018-Jul-13 16:21N 38°24' W 009°16'3 7.2
2018-Jul-13 15:57N 38°27' W 009°16'3 6.9
2018-Jul-13 15:28N 38°30' W 009°17'3 7.2
2018-Jul-13 14:59N 38°34' W 009°17'7 6.9
2018-Jul-13 14:00N 38°40' W 009°19'0 0.4
2018-Jul-13 12:58N 38°41' W 009°19'0 0.0
2018-Jul-13 12:28N 38°41' W 009°19'0 0.0
2018-Jul-13 11:49N 38°41' W 009°19'0 0.0
2018-Jul-13 11:19N 38°41' W 009°19'0 0.0
2018-Jul-13 10:28N 38°41' W 009°19'0 0.0
2018-Jul-13 09:52N 38°41' W 009°19'0 0.0
2018-Jul-13 09:28N 38°41' W 009°19'0 0.0
2018-Jul-13 08:16N 38°41' W 009°19'0 0.0
2018-Jul-13 07:55N 38°41' W 009°19'0 0.0
2018-Jul-13 06:28N 38°41' W 009°19'0 0.0
2018-Jul-13 04:16N 38°41' W 009°19'0 0.0
2018-Jul-13 03:40N 38°41' W 009°19'0 0.0
2018-Jul-13 03:28N 38°41' W 009°19'0 0.0
2018-Jul-13 02:58N 38°41' W 009°19'0 0.0
2018-Jul-13 02:28N 38°41' W 009°19'0 0.0
2018-Jul-13 01:04N 38°41' W 009°19'0 0.0
2018-Jul-13 00:46N 38°41' W 009°19'0 0.0
2018-Jul-12 23:19N 38°41' W 009°19'0 0.0
2018-Jul-12 21:43N 38°41' W 009°19'0 0.0
2018-Jul-12 21:22N 38°41' W 009°19'0 0.0
2018-Jul-12 19:49N 38°41' W 009°19'0 0.0
2018-Jul-12 19:04N 38°41' W 009°19'0 0.0
2018-Jul-12 18:34N 38°41' W 009°19'0 0.0
2018-Jul-12 18:01N 38°41' W 009°19'0 0.0
2018-Jul-12 17:49N 38°41' W 009°19'0 0.0
2018-Jul-12 17:19N 38°41' W 009°19'0 0.0
2018-Jul-12 16:55N 38°41' W 009°19'0 0.0
2018-Jul-12 16:22N 38°41' W 009°19'0 0.0
2018-Jul-12 14:55N 38°41' W 009°19'0 0.0
2018-Jul-12 13:46N 38°41' W 009°19'0 0.0
2018-Jul-12 13:01N 38°41' W 009°19'0 0.0
2018-Jul-12 12:49N 38°41' W 009°19'0 0.0
2018-Jul-12 12:07N 38°41' W 009°19'0 0.0
2018-Jul-12 11:49N 38°41' W 009°19'0 0.0
2018-Jul-12 11:22N 38°41' W 009°19'0 0.0
2018-Jul-12 10:49N 38°41' W 009°19'0 0.0
2018-Jul-12 10:22N 38°41' W 009°19'0 0.0
2018-Jul-12 09:58N 38°41' W 009°19'0 0.0
2018-Jul-12 09:28N 38°41' W 009°19'0 0.0
2018-Jul-12 07:55N 38°41' W 009°19'0 0.0
2018-Jul-12 07:22N 38°41' W 009°19'0 0.0
2018-Jul-12 06:55N 38°41' W 009°19'0 0.0
2018-Jul-12 06:13N 38°41' W 009°19'0 0.0
2018-Jul-12 05:34N 38°41' W 009°19'0 0.0
2018-Jul-12 05:19N 38°41' W 009°19'0 0.0
2018-Jul-12 04:49N 38°41' W 009°19'0 0.0
2018-Jul-12 04:25N 38°41' W 009°19'0 0.0
2018-Jul-12 03:55N 38°41' W 009°19'0 0.0
2018-Jul-12 03:25N 38°41' W 009°19'0 0.0
2018-Jul-12 02:55N 38°41' W 009°19'0 0.0
2018-Jul-12 02:16N 38°41' W 009°19'0 0.0
2018-Jul-12 01:58N 38°41' W 009°19'0 0.0
2018-Jul-12 00:19N 38°41' W 009°19'0 0.0
2018-Jul-11 23:55N 38°41' W 009°19'0 0.0
2018-Jul-11 23:19N 38°41' W 009°19'0 0.0
2018-Jul-11 22:58N 38°41' W 009°19'0 0.0
2018-Jul-11 22:25N 38°41' W 009°19'0 0.0
2018-Jul-11 21:49N 38°41' W 009°19'0 0.0
2018-Jul-11 21:10N 38°41' W 009°19'0 0.0
2018-Jul-11 20:49N 38°41' W 009°19'0 0.0
2018-Jul-11 20:19N 38°41' W 009°19'0 0.0
2018-Jul-11 15:43N 38°41' W 009°19'0 0.0
2018-Jul-11 15:19N 38°41' W 009°19'0 0.0
2018-Jul-11 14:58N 38°41' W 009°19'0 0.0
2018-Jul-11 14:28N 38°41' W 009°19'0 0.0
2018-Jul-11 13:52N 38°41' W 009°19'0 0.0
2018-Jul-11 13:22N 38°41' W 009°19'0 0.0
2018-Jul-11 12:34N 38°41' W 009°19'0 0.0
2018-Jul-11 12:28N 38°41' W 009°19'0 0.0
2018-Jul-11 11:58N 38°41' W 009°19'0 0.0
2018-Jul-11 10:16N 38°41' W 009°19'0 0.0
2018-Jul-11 09:46N 38°41' W 009°19'0 0.0
2018-Jul-11 09:19N 38°41' W 009°19'0 0.0
2018-Jul-11 08:58N 38°41' W 009°19'0 0.0
2018-Jul-11 08:25N 38°41' W 009°19'0 0.0
2018-Jul-11 07:58N 38°41' W 009°19'0 0.0
2018-Jul-11 07:16N 38°41' W 009°19'0 0.0
2018-Jul-11 06:58N 38°41' W 009°19'0 0.0
2018-Jul-11 06:28N 38°41' W 009°19'0 0.0
2018-Jul-11 05:52N 38°41' W 009°19'0 0.0
2018-Jul-11 05:28N 38°41' W 009°19'0 0.0
2018-Jul-11 04:52N 38°41' W 009°19'0 0.0
2018-Jul-11 04:19N 38°41' W 009°19'0 0.0
2018-Jul-11 03:58N 38°41' W 009°19'0 0.0
2018-Jul-11 03:22N 38°41' W 009°19'0 0.0
2018-Jul-11 02:58N 38°41' W 009°19'0 0.0
2018-Jul-11 02:25N 38°41' W 009°19'0 0.0
2018-Jul-11 01:58N 38°41' W 009°19'0 0.0
2018-Jul-11 01:10N 38°41' W 009°19'0 0.0
2018-Jul-11 00:58N 38°41' W 009°19'0 0.0
2018-Jul-11 00:28N 38°41' W 009°19'0 0.0
2018-Jul-10 23:55N 38°41' W 009°19'0 0.0
2018-Jul-10 23:28N 38°41' W 009°19'0 0.0
2018-Jul-10 22:52N 38°41' W 009°19'0 0.0
2018-Jul-10 22:10N 38°41' W 009°19'0 0.0
2018-Jul-10 21:58N 38°41' W 009°19'0 0.0
2018-Jul-10 21:28N 38°41' W 009°19'0 0.0
2018-Jul-10 20:58N 38°41' W 009°19'0 0.0
2018-Jul-10 19:49N 38°41' W 009°19'0 0.0
2018-Jul-10 19:22N 38°41' W 009°19'0 0.0
2018-Jul-10 18:40N 38°41' W 009°19'0 0.0
2018-Jul-10 18:22N 38°41' W 009°19'0 0.0
2018-Jul-10 17:58N 38°41' W 009°19'0 0.0
2018-Jul-10 16:52N 38°41' W 009°19'0 0.0
2018-Jul-10 16:16N 38°41' W 009°19'0 0.0
2018-Jul-10 15:58N 38°41' W 009°19'0 0.0
2018-Jul-10 15:25N 38°41' W 009°19'0 0.0
2018-Jul-10 13:52N 38°41' W 009°19'0 0.0
2018-Jul-10 13:25N 38°41' W 009°19'0 0.0
2018-Jul-10 12:16N 38°41' W 009°19'0 0.0
2018-Jul-10 11:52N 38°41' W 009°19'0 0.0
2018-Jul-10 11:25N 38°41' W 009°19'0 0.0
2018-Jul-10 10:58N 38°41' W 009°19'0 0.0
2018-Jul-10 09:49N 38°41' W 009°19'0 0.0
2018-Jul-10 08:46N 38°41' W 009°19'0 0.0
2018-Jul-10 08:28N 38°41' W 009°19'0 0.0
2018-Jul-10 07:40N 38°41' W 009°19'0 0.0
2018-Jul-10 07:16N 38°41' W 009°19'0 0.0
2018-Jul-10 06:52N 38°41' W 009°19'0 0.0
2018-Jul-10 06:28N 38°41' W 009°19'0 0.0
2018-Jul-10 05:52N 38°41' W 009°19'0 0.0
2018-Jul-10 05:28N 38°41' W 009°19'0 0.0
2018-Jul-10 04:52N 38°41' W 009°19'0 0.0
2018-Jul-10 04:28N 38°41' W 009°19'0 0.0
2018-Jul-10 03:55N 38°41' W 009°19'0 0.0
2018-Jul-10 03:22N 38°41' W 009°19'0 0.0
2018-Jul-10 02:52N 38°41' W 009°19'0 0.0
2018-Jul-10 02:28N 38°41' W 009°19'0 0.0
2018-Jul-10 01:52N 38°41' W 009°19'0 0.0
2018-Jul-10 01:28N 38°41' W 009°19'0 0.0
2018-Jul-10 00:52N 38°41' W 009°19'0 0.0
2018-Jul-10 00:28N 38°41' W 009°19'0 0.0
2018-Jul-09 23:52N 38°41' W 009°19'0 0.0
2018-Jul-09 23:22N 38°41' W 009°19'0 0.0
2018-Jul-09 22:58N 38°41' W 009°19'0 0.0
2018-Jul-09 22:25N 38°41' W 009°19'0 0.0
2018-Jul-09 21:52N 38°41' W 009°19'0 0.0
2018-Jul-09 21:25N 38°41' W 009°19'0 0.0
2018-Jul-09 20:40N 38°41' W 009°19'0 0.0
2018-Jul-09 20:10N 38°41' W 009°19'0 0.0
2018-Jul-09 19:58N 38°41' W 009°19'0 0.0
2018-Jul-09 19:22N 38°41' W 009°19'0 0.0
2018-Jul-09 18:58N 38°41' W 009°19'0 0.0
2018-Jul-09 18:28N 38°41' W 009°19'0 0.0
2018-Jul-09 17:46N 38°41' W 009°19'0 0.0
2018-Jul-09 17:22N 38°41' W 009°19'0 0.0
2018-Jul-09 16:58N 38°41' W 009°19'0 0.0
2018-Jul-09 16:26N 38°41' W 009°19'0 0.0
2018-Jul-09 15:53N 38°41' W 009°19'0 0.0
2018-Jul-09 15:20N 38°41' W 009°19'0 0.0
2018-Jul-09 14:56N 38°41' W 009°19'0 0.0
2018-Jul-09 14:29N 38°41' W 009°19'0 0.0
2018-Jul-09 13:56N 38°41' W 009°19'0 0.0
2018-Jul-09 13:17N 38°41' W 009°19'0 0.0
2018-Jul-09 12:02N 38°41' W 009°19'0 0.0
2018-Jul-09 11:50N 38°41' W 009°19'0 0.0
2018-Jul-09 11:20N 38°41' W 009°19'0 0.0
2018-Jul-09 10:59N 38°41' W 009°19'0 0.0
2018-Jul-09 09:38N 38°41' W 009°19'0 0.0
2018-Jul-09 08:32N 38°41' W 009°19'0 0.0
2018-Jul-09 08:26N 38°41' W 009°19'0 0.0
2018-Jul-09 07:38N 38°41' W 009°19'0 0.0
2018-Jul-09 07:20N 38°41' W 009°19'0 0.0
2018-Jul-09 06:44N 38°41' W 009°19'0 0.0
2018-Jul-09 06:20N 38°41' W 009°19'0 0.0
2018-Jul-09 05:59N 38°41' W 009°19'0 0.0
2018-Jul-09 05:20N 38°41' W 009°19'0 0.0
2018-Jul-09 04:56N 38°41' W 009°19'0 0.0
2018-Jul-09 04:23N 38°41' W 009°19'0 0.0
2018-Jul-09 03:38N 38°41' W 009°19'0 0.0
2018-Jul-09 03:29N 38°41' W 009°19'0 0.0
2018-Jul-09 02:58N 38°41' W 009°19'0 0.0
2018-Jul-09 02:25N 38°41' W 009°19'0 0.0
2018-Jul-09 01:10N 38°41' W 009°19'0 0.0
2018-Jul-09 00:49N 38°41' W 009°19'0 0.0
2018-Jul-09 00:19N 38°41' W 009°19'0 0.0
2018-Jul-08 23:55N 38°41' W 009°19'0 0.0
2018-Jul-08 23:28N 38°41' W 009°19'0 0.0
2018-Jul-08 22:55N 38°41' W 009°19'0 0.0
2018-Jul-08 21:49N 38°41' W 009°19'0 0.0
2018-Jul-08 21:25N 38°41' W 009°19'0 0.0
2018-Jul-08 20:49N 38°41' W 009°19'0 0.0
2018-Jul-08 20:16N 38°41' W 009°19'0 0.0
2018-Jul-08 19:55N 38°41' W 009°19'0 0.0
2018-Jul-08 19:25N 38°41' W 009°19'0 0.0
2018-Jul-08 19:00N 38°41' W 009°19'0 0.0
2018-Jul-08 18:24N 38°41' W 009°19'0 0.0
2018-Jul-08 18:00N 38°41' W 009°19'0 0.0
2018-Jul-08 17:21N 38°41' W 009°19'0 0.0
2018-Jul-08 16:42N 38°41' W 009°19'0 0.0
2018-Jul-08 16:24N 38°41' W 009°19'0 0.0
2018-Jul-08 15:54N 38°41' W 009°19'0 0.0
2018-Jul-08 15:30N 38°41' W 009°19'0 0.0
2018-Jul-08 15:01N 38°41' W 009°19'0 0.0
2018-Jul-08 14:15N 38°41' W 009°19'0 0.0
2018-Jul-08 13:57N 38°41' W 009°19'0 0.0
2018-Jul-08 12:30N 38°41' W 009°19'0 0.0
2018-Jul-08 11:06N 38°41' W 009°19'0 0.0
2018-Jul-08 08:57N 38°41' W 009°19'0 0.0
2018-Jul-08 07:36N 38°41' W 009°19'0 0.1
2018-Jul-08 07:30N 38°41' W 009°19'0 0.0
2018-Jul-08 06:57N 38°41' W 009°19'0 0.0
2018-Jul-08 06:26N 38°41' W 009°19'0 0.0
2018-Jul-08 05:59N 38°41' W 009°19'0 0.0
2018-Jul-08 05:23N 38°41' W 009°19'0 0.0
2018-Jul-08 04:56N 38°41' W 009°19'0 0.0
2018-Jul-08 04:26N 38°41' W 009°19'0 0.0
2018-Jul-08 03:59N 38°41' W 009°19'0 0.0
2018-Jul-08 03:23N 38°41' W 009°19'0 0.0
2018-Jul-08 02:59N 38°41' W 009°19'0 0.0
2018-Jul-08 02:29N 38°41' W 009°19'0 0.0
2018-Jul-08 01:05N 38°41' W 009°19'0 0.0
2018-Jul-08 00:50N 38°41' W 009°19'0 0.0
2018-Jul-07 22:35N 38°41' W 009°19'0 0.0
2018-Jul-07 22:11N 38°41' W 009°19'0 0.0
2018-Jul-07 21:50N 38°41' W 009°19'0 0.0
2018-Jul-07 20:34N 38°41' W 009°19'0 0.0
2018-Jul-07 20:28N 38°41' W 009°19'0 0.0
2018-Jul-07 19:58N 38°41' W 009°19'0 0.0
2018-Jul-07 18:22N 38°41' W 009°19'0 0.0
2018-Jul-07 17:58N 38°41' W 009°19'0 0.0
2018-Jul-07 17:28N 38°41' W 009°19'0 0.0
2018-Jul-07 16:10N 38°41' W 009°19'0 0.0
2018-Jul-07 15:58N 38°41' W 009°19'0 0.0
2018-Jul-07 15:22N 38°41' W 009°19'0 0.0
2018-Jul-07 14:55N 38°41' W 009°19'0 0.0
2018-Jul-07 14:28N 38°41' W 009°19'0 0.0
2018-Jul-07 13:52N 38°41' W 009°19'0 0.0
2018-Jul-07 13:28N 38°41' W 009°19'0 0.0
2018-Jul-07 12:52N 38°41' W 009°19'0 0.0
2018-Jul-07 12:28N 38°41' W 009°19'0 0.0
2018-Jul-07 09:52N 38°41' W 009°19'0 0.0
2018-Jul-07 09:28N 38°41' W 009°19'0 0.0
2018-Jul-07 08:49N 38°41' W 009°19'0 0.0
2018-Jul-07 08:19N 38°41' W 009°19'0 0.0
2018-Jul-07 07:46N 38°41' W 009°19'0 0.0
2018-Jul-07 07:16N 38°41' W 009°19'0 0.0
2018-Jul-07 06:58N 38°41' W 009°19'0 0.0
2018-Jul-07 06:04N 38°41' W 009°19'0 0.0
2018-Jul-07 05:58N 38°41' W 009°19'0 0.0
2018-Jul-07 04:25N 38°41' W 009°19'0 0.0
2018-Jul-07 03:58N 38°41' W 009°19'0 0.0
2018-Jul-07 03:25N 38°41' W 009°19'0 0.0
2018-Jul-07 02:37N 38°41' W 009°19'0 0.0
2018-Jul-07 02:10N 38°41' W 009°19'0 0.0
2018-Jul-07 01:43N 38°41' W 009°19'0 0.0
2018-Jul-07 01:22N 38°41' W 009°19'0 0.0
2018-Jul-07 00:58N 38°41' W 009°19'0 0.0
2018-Jul-07 00:19N 38°41' W 009°19'0 0.0
2018-Jul-06 23:55N 38°41' W 009°19'0 0.0
2018-Jul-06 23:28N 38°41' W 009°19'0 0.0
2018-Jul-06 21:46N 38°41' W 009°19'0 0.0
2018-Jul-06 21:25N 38°41' W 009°19'0 0.0
2018-Jul-06 20:04N 38°41' W 009°19'0 0.0
2018-Jul-06 19:46N 38°41' W 009°19'0 0.0
2018-Jul-06 19:28N 38°41' W 009°19'0 0.0
2018-Jul-06 18:52N 38°41' W 009°19'0 0.0
2018-Jul-06 18:16N 38°41' W 009°19'0 0.0
2018-Jul-06 17:34N 38°41' W 009°19'0 0.0
2018-Jul-06 17:28N 38°41' W 009°19'0 0.0
2018-Jul-06 16:52N 38°41' W 009°19'0 0.0
2018-Jul-06 16:22N 38°41' W 009°19'0 0.0
2018-Jul-06 15:58N 38°41' W 009°19'0 0.0
2018-Jul-06 15:28N 38°41' W 009°19'0 0.0
2018-Jul-06 14:40N 38°41' W 009°19'0 0.0
2018-Jul-06 14:22N 38°41' W 009°19'0 0.0
2018-Jul-06 13:34N 38°41' W 009°19'0 0.0
2018-Jul-06 13:16N 38°41' W 009°19'0 0.0
2018-Jul-06 10:52N 38°41' W 009°19'0 0.0
2018-Jul-06 10:28N 38°41' W 009°19'0 0.0
2018-Jul-06 09:46N 38°41' W 009°19'0 0.0
2018-Jul-06 09:28N 38°41' W 009°19'0 0.0
2018-Jul-06 08:46N 38°41' W 009°19'0 0.0
2018-Jul-06 08:28N 38°41' W 009°19'0 0.0
2018-Jul-06 07:58N 38°41' W 009°19'0 0.0
2018-Jul-06 07:28N 38°41' W 009°19'0 0.0
2018-Jul-06 06:46N 38°41' W 009°19'0 0.0
2018-Jul-06 06:19N 38°41' W 009°19'0 0.0
2018-Jul-06 04:34N 38°41' W 009°19'0 0.0
2018-Jul-06 03:04N 38°41' W 009°19'0 0.0
2018-Jul-06 02:46N 38°41' W 009°19'0 0.0
2018-Jul-06 02:28N 38°41' W 009°19'0 0.0
2018-Jul-06 01:52N 38°41' W 009°19'0 0.0
2018-Jul-06 01:28N 38°41' W 009°19'0 0.0
2018-Jul-06 00:02N 38°41' W 009°19'0 0.0
2018-Jul-05 23:41N 38°41' W 009°19'0 0.0
2018-Jul-05 22:38N 38°41' W 009°19'0 0.0
2018-Jul-05 20:26N 38°41' W 009°19'0 0.0
2018-Jul-05 18:44N 38°41' W 009°19'0 0.0
2018-Jul-05 17:32N 38°41' W 009°19'0 0.0
2018-Jul-05 16:38N 38°41' W 009°19'0 0.0
2018-Jul-05 16:20N 38°41' W 009°19'0 0.0
2018-Jul-05 15:44N 38°41' W 009°19'0 0.0
2018-Jul-05 14:32N 38°41' W 009°19'0 0.0
2018-Jul-05 13:56N 38°41' W 009°19'0 0.0
2018-Jul-05 13:08N 38°41' W 009°19'0 0.0
2018-Jul-05 12:56N 38°41' W 009°19'0 0.0
2018-Jul-05 12:26N 38°41' W 009°19'0 0.0
2018-Jul-05 11:56N 38°41' W 009°19'0 0.0
2018-Jul-05 11:08N 38°41' W 009°19'0 0.0
2018-Jul-05 10:38N 38°41' W 009°19'0 0.0
2018-Jul-05 10:26N 38°41' W 009°19'0 0.0
2018-Jul-05 09:50N 38°41' W 009°19'0 0.0
2018-Jul-05 09:20N 38°41' W 009°19'0 0.0
2018-Jul-05 08:50N 38°41' W 009°19'0 0.0
2018-Jul-05 08:08N 38°41' W 009°19'0 0.0
2018-Jul-05 07:50N 38°41' W 009°19'0 0.0
2018-Jul-05 07:23N 38°41' W 009°19'0 0.0
2018-Jul-05 06:38N 38°41' W 009°19'0 0.0
2018-Jul-05 06:23N 38°41' W 009°19'0 0.0
2018-Jul-05 05:53N 38°41' W 009°19'0 0.0
2018-Jul-05 05:26N 38°41' W 009°19'0 0.0
2018-Jul-05 04:50N 38°41' W 009°19'0 0.0
2018-Jul-05 04:14N 38°41' W 009°19'0 0.0
2018-Jul-05 03:44N 38°41' W 009°19'0 0.0
2018-Jul-05 03:26N 38°41' W 009°19'0 0.0
2018-Jul-05 02:59N 38°41' W 009°19'0 0.0
2018-Jul-05 02:20N 38°41' W 009°19'0 0.0
2018-Jul-05 01:56N 38°41' W 009°19'0 0.0
2018-Jul-04 23:41N 38°41' W 009°19'0 0.0
2018-Jul-04 23:08N 38°41' W 009°19'0 0.0
2018-Jul-04 22:53N 38°41' W 009°19'0 0.0
2018-Jul-04 22:26N 38°41' W 009°19'0 0.0
2018-Jul-04 21:56N 38°41' W 009°19'0 0.0
2018-Jul-04 20:20N 38°41' W 009°19'0 0.0
2018-Jul-04 18:50N 38°41' W 009°19'0 0.0
2018-Jul-04 16:44N 38°41' W 009°19'0 0.0
2018-Jul-04 16:20N 38°41' W 009°19'0 0.0
2018-Jul-04 15:06N 38°41' W 009°19'0 0.0
2018-Jul-04 14:59N 38°41' W 009°19'0 0.0
2018-Jul-04 14:23N 38°41' W 009°19'0 0.0
2018-Jul-04 13:56N 38°41' W 009°19'0 0.0
2018-Jul-04 13:23N 38°41' W 009°19'0 0.0
2018-Jul-04 10:53N 38°41' W 009°19'0 0.0
2018-Jul-04 10:23N 38°41' W 009°19'0 0.0
2018-Jul-04 09:59N 38°41' W 009°19'  

Dump ship's entire track history